sensor_id;sensor_type;location;lat;lon;timestamp;P1;durP1;ratioP1;P2;durP2;ratioP2
37891;SDS011;45797;47.466;9.486;2023-05-07T00:00:58;2.25;;;1.10;;
37891;SDS011;45797;47.466;9.486;2023-05-07T00:06:07;3.55;;;1.20;;
37891;SDS011;45797;47.466;9.486;2023-05-07T00:11:09;2.10;;;1.00;;
37891;SDS011;45797;47.466;9.486;2023-05-07T00:16:11;2.65;;;1.23;;
37891;SDS011;45797;47.466;9.486;2023-05-07T00:21:13;3.25;;;1.15;;
37891;SDS011;45797;47.466;9.486;2023-05-07T00:26:29;3.78;;;1.42;;
37891;SDS011;45797;47.466;9.486;2023-05-07T00:31:32;4.50;;;1.30;;
37891;SDS011;45797;47.466;9.486;2023-05-07T00:36:49;1.77;;;0.82;;
37891;SDS011;45797;47.466;9.486;2023-05-07T00:42:03;1.67;;;0.80;;
37891;SDS011;45797;47.466;9.486;2023-05-07T00:52:09;4.68;;;1.13;;
37891;SDS011;45797;47.466;9.486;2023-05-07T00:57:20;2.30;;;0.90;;
37891;SDS011;45797;47.466;9.486;2023-05-07T01:07:41;3.42;;;1.30;;
37891;SDS011;45797;47.466;9.486;2023-05-07T01:12:42;3.55;;;1.08;;
37891;SDS011;45797;47.466;9.486;2023-05-07T01:23:04;3.05;;;1.17;;
37891;SDS011;45797;47.466;9.486;2023-05-07T01:28:07;4.13;;;1.20;;
37891;SDS011;45797;47.466;9.486;2023-05-07T01:38:21;2.40;;;1.20;;
37891;SDS011;45797;47.466;9.486;2023-05-07T01:43:30;2.88;;;1.48;;
37891;SDS011;45797;47.466;9.486;2023-05-07T01:48:43;3.47;;;1.30;;
37891;SDS011;45797;47.466;9.486;2023-05-07T01:53:45;2.38;;;1.27;;
37891;SDS011;45797;47.466;9.486;2023-05-07T01:58:51;3.13;;;1.45;;
37891;SDS011;45797;47.466;9.486;2023-05-07T02:04:01;2.42;;;1.20;;
37891;SDS011;45797;47.466;9.486;2023-05-07T02:09:09;2.83;;;1.30;;
37891;SDS011;45797;47.466;9.486;2023-05-07T02:19:18;2.38;;;1.25;;
37891;SDS011;45797;47.466;9.486;2023-05-07T02:24:21;1.98;;;1.02;;
37891;SDS011;45797;47.466;9.486;2023-05-07T02:29:23;3.03;;;1.10;;
37891;SDS011;45797;47.466;9.486;2023-05-07T02:34:39;2.78;;;1.60;;
37891;SDS011;45797;47.466;9.486;2023-05-07T02:44:46;2.58;;;1.10;;
37891;SDS011;45797;47.466;9.486;2023-05-07T02:49:47;2.88;;;1.30;;
37891;SDS011;45797;47.466;9.486;2023-05-07T02:59:52;3.88;;;1.50;;
37891;SDS011;45797;47.466;9.486;2023-05-07T03:04:54;3.42;;;1.20;;
37891;SDS011;45797;47.466;9.486;2023-05-07T03:15:00;2.35;;;1.33;;
37891;SDS011;45797;47.466;9.486;2023-05-07T03:20:02;2.58;;;1.33;;
37891;SDS011;45797;47.466;9.486;2023-05-07T03:25:05;2.42;;;1.20;;
37891;SDS011;45797;47.466;9.486;2023-05-07T03:30:07;3.25;;;1.50;;
37891;SDS011;45797;47.466;9.486;2023-05-07T03:35:09;1.98;;;1.00;;
37891;SDS011;45797;47.466;9.486;2023-05-07T03:40:11;3.22;;;1.20;;
37891;SDS011;45797;47.466;9.486;2023-05-07T03:45:19;2.38;;;1.30;;
37891;SDS011;45797;47.466;9.486;2023-05-07T03:56:10;2.90;;;1.27;;
37891;SDS011;45797;47.466;9.486;2023-05-07T04:06:25;3.22;;;1.27;;
37891;SDS011;45797;47.466;9.486;2023-05-07T04:17:08;2.45;;;1.10;;
37891;SDS011;45797;47.466;9.486;2023-05-07T04:22:11;2.25;;;1.15;;
37891;SDS011;45797;47.466;9.486;2023-05-07T04:27:12;2.35;;;1.13;;
37891;SDS011;45797;47.466;9.486;2023-05-07T04:37:31;2.40;;;1.13;;
37891;SDS011;45797;47.466;9.486;2023-05-07T04:42:35;2.30;;;1.10;;
37891;SDS011;45797;47.466;9.486;2023-05-07T04:47:38;4.28;;;1.45;;
37891;SDS011;45797;47.466;9.486;2023-05-07T04:52:54;2.50;;;1.30;;
37891;SDS011;45797;47.466;9.486;2023-05-07T04:57:55;3.65;;;1.20;;
37891;SDS011;45797;47.466;9.486;2023-05-07T05:02:57;8.68;;;1.40;;
37891;SDS011;45797;47.466;9.486;2023-05-07T05:08:00;2.58;;;1.40;;
37891;SDS011;45797;47.466;9.486;2023-05-07T05:13:01;2.50;;;1.10;;
37891;SDS011;45797;47.466;9.486;2023-05-07T05:18:02;3.95;;;1.20;;
37891;SDS011;45797;47.466;9.486;2023-05-07T05:23:04;2.28;;;1.23;;
37891;SDS011;45797;47.466;9.486;2023-05-07T05:28:08;2.78;;;1.30;;
37891;SDS011;45797;47.466;9.486;2023-05-07T05:33:10;2.80;;;1.55;;
37891;SDS011;45797;47.466;9.486;2023-05-07T05:38:16;2.80;;;1.20;;
37891;SDS011;45797;47.466;9.486;2023-05-07T05:43:26;2.80;;;1.42;;
37891;SDS011;45797;47.466;9.486;2023-05-07T05:48:42;3.60;;;1.83;;
37891;SDS011;45797;47.466;9.486;2023-05-07T05:58:48;3.53;;;1.80;;
37891;SDS011;45797;47.466;9.486;2023-05-07T06:03:50;3.45;;;1.70;;
37891;SDS011;45797;47.466;9.486;2023-05-07T06:08:52;3.58;;;1.83;;
37891;SDS011;45797;47.466;9.486;2023-05-07T06:13:58;2.85;;;1.52;;
37891;SDS011;45797;47.466;9.486;2023-05-07T06:24:03;2.85;;;1.70;;
37891;SDS011;45797;47.466;9.486;2023-05-07T06:29:05;3.63;;;1.80;;
37891;SDS011;45797;47.466;9.486;2023-05-07T06:34:06;4.50;;;2.00;;
37891;SDS011;45797;47.466;9.486;2023-05-07T06:39:11;5.07;;;1.92;;
37891;SDS011;45797;47.466;9.486;2023-05-07T06:44:12;3.28;;;1.80;;
37891;SDS011;45797;47.466;9.486;2023-05-07T06:49:25;3.30;;;2.00;;
37891;SDS011;45797;47.466;9.486;2023-05-07T06:59:36;3.83;;;2.03;;
37891;SDS011;45797;47.466;9.486;2023-05-07T07:04:46;3.38;;;1.90;;
37891;SDS011;45797;47.466;9.486;2023-05-07T07:09:49;4.68;;;2.47;;
37891;SDS011;45797;47.466;9.486;2023-05-07T07:20:41;6.50;;;2.10;;
37891;SDS011;45797;47.466;9.486;2023-05-07T07:25:44;3.50;;;2.17;;
37891;SDS011;45797;47.466;9.486;2023-05-07T07:30:45;4.30;;;2.10;;
37891;SDS011;45797;47.466;9.486;2023-05-07T07:40:49;3.53;;;2.17;;
37891;SDS011;45797;47.466;9.486;2023-05-07T07:51:03;4.00;;;2.15;;
37891;SDS011;45797;47.466;9.486;2023-05-07T07:56:04;5.63;;;2.20;;
37891;SDS011;45797;47.466;9.486;2023-05-07T08:01:07;5.30;;;2.25;;
37891;SDS011;45797;47.466;9.486;2023-05-07T08:06:14;5.97;;;2.50;;
37891;SDS011;45797;47.466;9.486;2023-05-07T08:16:22;6.80;;;2.83;;
37891;SDS011;45797;47.466;9.486;2023-05-07T08:21:23;5.38;;;3.03;;
37891;SDS011;45797;47.466;9.486;2023-05-07T08:26:24;5.63;;;3.17;;
37891;SDS011;45797;47.466;9.486;2023-05-07T08:31:27;4.43;;;2.95;;
37891;SDS011;45797;47.466;9.486;2023-05-07T08:36:29;5.55;;;3.58;;
37891;SDS011;45797;47.466;9.486;2023-05-07T08:41:36;6.18;;;3.40;;
37891;SDS011;45797;47.466;9.486;2023-05-07T08:46:39;6.80;;;3.50;;
37891;SDS011;45797;47.466;9.486;2023-05-07T08:51:39;5.88;;;3.03;;
37891;SDS011;45797;47.466;9.486;2023-05-07T09:01:46;5.60;;;3.45;;
37891;SDS011;45797;47.466;9.486;2023-05-07T09:06:50;5.40;;;3.15;;
37891;SDS011;45797;47.466;9.486;2023-05-07T09:11:57;4.38;;;2.88;;
37891;SDS011;45797;47.466;9.486;2023-05-07T09:17:05;6.45;;;3.63;;
37891;SDS011;45797;47.466;9.486;2023-05-07T09:22:05;6.43;;;3.83;;
37891;SDS011;45797;47.466;9.486;2023-05-07T09:27:20;5.43;;;3.35;;
37891;SDS011;45797;47.466;9.486;2023-05-07T09:32:24;7.63;;;3.80;;
37891;SDS011;45797;47.466;9.486;2023-05-07T09:37:41;6.28;;;3.47;;
37891;SDS011;45797;47.466;9.486;2023-05-07T09:42:42;5.18;;;3.30;;
37891;SDS011;45797;47.466;9.486;2023-05-07T09:47:53;5.63;;;3.53;;
37891;SDS011;45797;47.466;9.486;2023-05-07T09:52:56;6.15;;;3.70;;
37891;SDS011;45797;47.466;9.486;2023-05-07T09:58:00;7.43;;;3.72;;
37891;SDS011;45797;47.466;9.486;2023-05-07T10:08:22;5.78;;;3.60;;
37891;SDS011;45797;47.466;9.486;2023-05-07T10:13:26;7.38;;;3.60;;
37891;SDS011;45797;47.466;9.486;2023-05-07T10:23:38;6.43;;;3.92;;
37891;SDS011;45797;47.466;9.486;2023-05-07T10:33:55;6.70;;;3.88;;
37891;SDS011;45797;47.466;9.486;2023-05-07T10:38:57;5.03;;;3.10;;
37891;SDS011;45797;47.466;9.486;2023-05-07T10:49:07;5.43;;;3.55;;
37891;SDS011;45797;47.466;9.486;2023-05-07T10:54:21;4.30;;;3.15;;
37891;SDS011;45797;47.466;9.486;2023-05-07T10:59:35;4.22;;;2.58;;
37891;SDS011;45797;47.466;9.486;2023-05-07T11:16:25;4.60;;;2.60;;
37891;SDS011;45797;47.466;9.486;2023-05-07T11:21:51;6.00;;;2.30;;
37891;SDS011;45797;47.466;9.486;2023-05-07T11:27:15;3.97;;;2.25;;
37891;SDS011;45797;47.466;9.486;2023-05-07T11:32:27;4.05;;;2.35;;
37891;SDS011;45797;47.466;9.486;2023-05-07T11:37:31;4.85;;;2.10;;
37891;SDS011;45797;47.466;9.486;2023-05-07T11:42:48;3.55;;;2.38;;
37891;SDS011;45797;47.466;9.486;2023-05-07T11:47:49;3.92;;;1.88;;
37891;SDS011;45797;47.466;9.486;2023-05-07T11:52:58;5.25;;;2.33;;
37891;SDS011;45797;47.466;9.486;2023-05-07T11:58:00;3.45;;;2.22;;
37891;SDS011;45797;47.466;9.486;2023-05-07T12:03:15;3.05;;;1.85;;
37891;SDS011;45797;47.466;9.486;2023-05-07T12:08:17;3.30;;;2.10;;
37891;SDS011;45797;47.466;9.486;2023-05-07T12:13:27;3.17;;;1.80;;
37891;SDS011;45797;47.466;9.486;2023-05-07T12:18:34;7.20;;;2.20;;
37891;SDS011;45797;47.466;9.486;2023-05-07T12:23:37;8.70;;;2.33;;
37891;SDS011;45797;47.466;9.486;2023-05-07T12:28:40;3.65;;;1.90;;
37891;SDS011;45797;47.466;9.486;2023-05-07T12:33:40;3.88;;;1.77;;
37891;SDS011;45797;47.466;9.486;2023-05-07T12:38:41;3.58;;;2.10;;
37891;SDS011;45797;47.466;9.486;2023-05-07T12:43:46;2.90;;;1.70;;
37891;SDS011;45797;47.466;9.486;2023-05-07T12:49:04;3.03;;;1.70;;
37891;SDS011;45797;47.466;9.486;2023-05-07T12:54:04;3.33;;;1.67;;
37891;SDS011;45797;47.466;9.486;2023-05-07T12:59:05;2.85;;;1.80;;
37891;SDS011;45797;47.466;9.486;2023-05-07T13:04:12;3.28;;;1.83;;
37891;SDS011;45797;47.466;9.486;2023-05-07T13:09:12;3.17;;;2.10;;
37891;SDS011;45797;47.466;9.486;2023-05-07T13:19:21;3.35;;;1.90;;
37891;SDS011;45797;47.466;9.486;2023-05-07T13:24:28;4.13;;;2.30;;
37891;SDS011;45797;47.466;9.486;2023-05-07T13:29:30;4.70;;;2.13;;
37891;SDS011;45797;47.466;9.486;2023-05-07T13:34:32;4.18;;;2.33;;
37891;SDS011;45797;47.466;9.486;2023-05-07T13:39:35;3.55;;;2.28;;
37891;SDS011;45797;47.466;9.486;2023-05-07T13:44:35;4.65;;;2.47;;
37891;SDS011;45797;47.466;9.486;2023-05-07T13:49:42;4.43;;;2.40;;
37891;SDS011;45797;47.466;9.486;2023-05-07T13:59:45;4.82;;;2.70;;
37891;SDS011;45797;47.466;9.486;2023-05-07T14:04:52;4.25;;;2.55;;
37891;SDS011;45797;47.466;9.486;2023-05-07T14:10:00;5.38;;;2.63;;
37891;SDS011;45797;47.466;9.486;2023-05-07T14:15:03;3.83;;;2.40;;
37891;SDS011;45797;47.466;9.486;2023-05-07T14:25:08;4.55;;;2.72;;
37891;SDS011;45797;47.466;9.486;2023-05-07T14:30:13;4.47;;;2.90;;
37891;SDS011;45797;47.466;9.486;2023-05-07T14:40:18;5.88;;;3.00;;
37891;SDS011;45797;47.466;9.486;2023-05-07T14:45:18;3.78;;;2.72;;
37891;SDS011;45797;47.466;9.486;2023-05-07T15:00:33;5.15;;;2.92;;
37891;SDS011;45797;47.466;9.486;2023-05-07T15:05:34;5.03;;;2.83;;
37891;SDS011;45797;47.466;9.486;2023-05-07T15:10:41;3.92;;;2.60;;
37891;SDS011;45797;47.466;9.486;2023-05-07T15:15:58;4.00;;;2.90;;
37891;SDS011;45797;47.466;9.486;2023-05-07T15:20:58;4.10;;;2.47;;
37891;SDS011;45797;47.466;9.486;2023-05-07T15:25:59;3.92;;;2.60;;
37891;SDS011;45797;47.466;9.486;2023-05-07T15:31:02;4.70;;;2.60;;
37891;SDS011;45797;47.466;9.486;2023-05-07T15:36:04;4.13;;;2.58;;
37891;SDS011;45797;47.466;9.486;2023-05-07T15:41:05;5.70;;;2.88;;
37891;SDS011;45797;47.466;9.486;2023-05-07T15:46:05;6.25;;;3.17;;
37891;SDS011;45797;47.466;9.486;2023-05-07T15:51:13;4.60;;;2.80;;
37891;SDS011;45797;47.466;9.486;2023-05-07T15:56:14;4.80;;;3.00;;
37891;SDS011;45797;47.466;9.486;2023-05-07T16:06:35;5.97;;;2.60;;
37891;SDS011;45797;47.466;9.486;2023-05-07T16:11:37;3.22;;;1.95;;
37891;SDS011;45797;47.466;9.486;2023-05-07T16:21:43;4.03;;;2.22;;
37891;SDS011;45797;47.466;9.486;2023-05-07T16:26:43;3.50;;;2.25;;
37891;SDS011;45797;47.466;9.486;2023-05-07T16:31:44;4.10;;;2.33;;
37891;SDS011;45797;47.466;9.486;2023-05-07T16:36:44;3.78;;;2.55;;
37891;SDS011;45797;47.466;9.486;2023-05-07T16:41:46;4.22;;;2.33;;
37891;SDS011;45797;47.466;9.486;2023-05-07T16:46:47;4.75;;;2.28;;
37891;SDS011;45797;47.466;9.486;2023-05-07T16:51:47;3.80;;;2.60;;
37891;SDS011;45797;47.466;9.486;2023-05-07T16:56:55;3.85;;;2.67;;
37891;SDS011;45797;47.466;9.486;2023-05-07T17:12:20;3.60;;;2.30;;
37891;SDS011;45797;47.466;9.486;2023-05-07T17:17:28;6.70;;;2.45;;
37891;SDS011;45797;47.466;9.486;2023-05-07T17:22:39;5.38;;;2.28;;
37891;SDS011;45797;47.466;9.486;2023-05-07T17:27:39;3.55;;;2.28;;
37891;SDS011;45797;47.466;9.486;2023-05-07T17:37:54;4.65;;;2.60;;
37891;SDS011;45797;47.466;9.486;2023-05-07T17:43:02;3.78;;;2.03;;
37891;SDS011;45797;47.466;9.486;2023-05-07T17:48:16;4.18;;;2.10;;
37891;SDS011;45797;47.466;9.486;2023-05-07T17:53:22;3.20;;;2.17;;
37891;SDS011;45797;47.466;9.486;2023-05-07T18:03:28;3.28;;;1.98;;
37891;SDS011;45797;47.466;9.486;2023-05-07T18:08:30;6.90;;;2.38;;
37891;SDS011;45797;47.466;9.486;2023-05-07T18:13:30;4.03;;;2.03;;
37891;SDS011;45797;47.466;9.486;2023-05-07T18:18:32;4.85;;;2.17;;
37891;SDS011;45797;47.466;9.486;2023-05-07T18:23:40;3.75;;;1.88;;
37891;SDS011;45797;47.466;9.486;2023-05-07T18:28:42;4.30;;;2.25;;
37891;SDS011;45797;47.466;9.486;2023-05-07T18:38:54;4.25;;;2.05;;
37891;SDS011;45797;47.466;9.486;2023-05-07T18:43:56;5.00;;;1.92;;
37891;SDS011;45797;47.466;9.486;2023-05-07T18:48:56;3.75;;;1.80;;
37891;SDS011;45797;47.466;9.486;2023-05-07T18:54:05;4.35;;;1.90;;
37891;SDS011;45797;47.466;9.486;2023-05-07T19:09:16;3.78;;;2.17;;
37891;SDS011;45797;47.466;9.486;2023-05-07T19:14:22;3.42;;;1.75;;
37891;SDS011;45797;47.466;9.486;2023-05-07T19:24:29;3.25;;;1.50;;
37891;SDS011;45797;47.466;9.486;2023-05-07T19:29:31;3.67;;;1.52;;
37891;SDS011;45797;47.466;9.486;2023-05-07T19:34:33;2.90;;;1.60;;
37891;SDS011;45797;47.466;9.486;2023-05-07T19:45:04;5.90;;;1.50;;
37891;SDS011;45797;47.466;9.486;2023-05-07T19:50:04;2.40;;;1.10;;
37891;SDS011;45797;47.466;9.486;2023-05-07T19:55:07;2.80;;;1.27;;
37891;SDS011;45797;47.466;9.486;2023-05-07T20:00:09;2.70;;;1.30;;
37891;SDS011;45797;47.466;9.486;2023-05-07T20:05:16;2.33;;;1.17;;
37891;SDS011;45797;47.466;9.486;2023-05-07T20:10:17;2.90;;;1.48;;
37891;SDS011;45797;47.466;9.486;2023-05-07T20:15:18;3.00;;;1.45;;
37891;SDS011;45797;47.466;9.486;2023-05-07T20:20:19;2.28;;;1.10;;
37891;SDS011;45797;47.466;9.486;2023-05-07T20:30:23;2.35;;;1.20;;
37891;SDS011;45797;47.466;9.486;2023-05-07T20:40:52;1.95;;;1.10;;
37891;SDS011;45797;47.466;9.486;2023-05-07T20:46:06;2.28;;;1.10;;
37891;SDS011;45797;47.466;9.486;2023-05-07T20:51:09;4.18;;;1.15;;
37891;SDS011;45797;47.466;9.486;2023-05-07T21:01:37;2.90;;;1.38;;
37891;SDS011;45797;47.466;9.486;2023-05-07T21:11:44;2.22;;;1.05;;
37891;SDS011;45797;47.466;9.486;2023-05-07T21:16:45;1.65;;;0.93;;
37891;SDS011;45797;47.466;9.486;2023-05-07T21:21:46;3.22;;;1.05;;
37891;SDS011;45797;47.466;9.486;2023-05-07T21:32:01;2.15;;;1.00;;
37891;SDS011;45797;47.466;9.486;2023-05-07T21:37:04;2.70;;;1.20;;
37891;SDS011;45797;47.466;9.486;2023-05-07T21:47:17;2.03;;;1.00;;
37891;SDS011;45797;47.466;9.486;2023-05-07T21:52:18;2.63;;;1.10;;
37891;SDS011;45797;47.466;9.486;2023-05-07T21:57:20;1.98;;;1.00;;
37891;SDS011;45797;47.466;9.486;2023-05-07T22:07:32;1.80;;;0.90;;
37891;SDS011;45797;47.466;9.486;2023-05-07T22:12:34;1.58;;;0.80;;
37891;SDS011;45797;47.466;9.486;2023-05-07T22:17:36;1.75;;;0.88;;
37891;SDS011;45797;47.466;9.486;2023-05-07T22:27:56;2.10;;;0.90;;
37891;SDS011;45797;47.466;9.486;2023-05-07T22:33:09;1.27;;;0.60;;
37891;SDS011;45797;47.466;9.486;2023-05-07T22:38:11;1.10;;;0.60;;
37891;SDS011;45797;47.466;9.486;2023-05-07T22:43:13;1.15;;;0.70;;
37891;SDS011;45797;47.466;9.486;2023-05-07T22:58:26;2.85;;;1.30;;
37891;SDS011;45797;47.466;9.486;2023-05-07T23:08:44;2.97;;;1.23;;
37891;SDS011;45797;47.466;9.486;2023-05-07T23:13:47;2.65;;;1.15;;
37891;SDS011;45797;47.466;9.486;2023-05-07T23:19:01;3.28;;;1.30;;
37891;SDS011;45797;47.466;9.486;2023-05-07T23:29:11;1.65;;;0.75;;
37891;SDS011;45797;47.466;9.486;2023-05-07T23:45:07;2.97;;;0.70;;
